sensor_id;sensor_type;location;lat;lon;timestamp;temperature;humidity
16174;DHT22;14031;50.158;8.626;2023-07-16T00:01:52;22.20;99.90
16174;DHT22;14031;50.158;8.626;2023-07-16T00:04:20;22.10;99.90
16174;DHT22;14031;50.158;8.626;2023-07-16T00:06:47;22.10;99.90
16174;DHT22;14031;50.158;8.626;2023-07-16T00:09:19;22.10;99.90
16174;DHT22;14031;50.158;8.626;2023-07-16T00:11:46;22.10;99.90
16174;DHT22;14031;50.158;8.626;2023-07-16T00:14:13;22.10;99.90
16174;DHT22;14031;50.158;8.626;2023-07-16T00:16:39;22.10;99.90
16174;DHT22;14031;50.158;8.626;2023-07-16T00:19:06;22.00;99.90
16174;DHT22;14031;50.158;8.626;2023-07-16T00:21:34;22.00;99.90
16174;DHT22;14031;50.158;8.626;2023-07-16T00:24:03;21.90;99.90
16174;DHT22;14031;50.158;8.626;2023-07-16T00:26:30;21.90;99.90
16174;DHT22;14031;50.158;8.626;2023-07-16T00:28:57;21.90;99.90
16174;DHT22;14031;50.158;8.626;2023-07-16T00:31:23;21.90;99.90
16174;DHT22;14031;50.158;8.626;2023-07-16T00:33:50;21.80;99.90
16174;DHT22;14031;50.158;8.626;2023-07-16T00:36:17;21.70;99.90
16174;DHT22;14031;50.158;8.626;2023-07-16T00:38:45;21.80;99.90
16174;DHT22;14031;50.158;8.626;2023-07-16T00:41:13;21.80;99.90
16174;DHT22;14031;50.158;8.626;2023-07-16T00:43:39;21.80;99.90
16174;DHT22;14031;50.158;8.626;2023-07-16T00:46:07;21.80;99.90
16174;DHT22;14031;50.158;8.626;2023-07-16T00:48:34;21.80;99.90
16174;DHT22;14031;50.158;8.626;2023-07-16T00:51:01;21.80;99.90
16174;DHT22;14031;50.158;8.626;2023-07-16T00:53:29;21.70;99.90
16174;DHT22;14031;50.158;8.626;2023-07-16T00:55:57;21.70;99.90
16174;DHT22;14031;50.158;8.626;2023-07-16T00:58:25;21.70;99.90
16174;DHT22;14031;50.158;8.626;2023-07-16T01:00:51;21.70;99.90
16174;DHT22;14031;50.158;8.626;2023-07-16T01:03:18;21.70;99.90
16174;DHT22;14031;50.158;8.626;2023-07-16T01:05:49;21.70;99.90
16174;DHT22;14031;50.158;8.626;2023-07-16T01:08:21;21.70;99.90
16174;DHT22;14031;50.158;8.626;2023-07-16T01:10:51;21.70;99.90
16174;DHT22;14031;50.158;8.626;2023-07-16T01:13:20;21.60;99.90
16174;DHT22;14031;50.158;8.626;2023-07-16T01:15:46;21.70;99.90
16174;DHT22;14031;50.158;8.626;2023-07-16T01:18:13;21.70;99.90
16174;DHT22;14031;50.158;8.626;2023-07-16T01:20:40;21.70;99.90
16174;DHT22;14031;50.158;8.626;2023-07-16T01:23:26;21.60;99.90
16174;DHT22;14031;50.158;8.626;2023-07-16T01:26:08;21.70;99.90
16174;DHT22;14031;50.158;8.626;2023-07-16T01:28:50;21.70;99.90
16174;DHT22;14031;50.158;8.626;2023-07-16T01:31:22;21.60;99.90
16174;DHT22;14031;50.158;8.626;2023-07-16T01:33:50;21.60;99.90
16174;DHT22;14031;50.158;8.626;2023-07-16T01:36:17;21.70;99.90
16174;DHT22;14031;50.158;8.626;2023-07-16T01:38:45;21.60;99.90
16174;DHT22;14031;50.158;8.626;2023-07-16T01:41:12;21.60;99.90
16174;DHT22;14031;50.158;8.626;2023-07-16T01:43:38;21.60;99.90
16174;DHT22;14031;50.158;8.626;2023-07-16T01:46:05;21.60;99.90
16174;DHT22;14031;50.158;8.626;2023-07-16T01:48:35;21.60;99.90
16174;DHT22;14031;50.158;8.626;2023-07-16T01:51:02;21.60;99.90
16174;DHT22;14031;50.158;8.626;2023-07-16T01:53:29;21.60;99.90
16174;DHT22;14031;50.158;8.626;2023-07-16T01:55:56;21.60;99.90
16174;DHT22;14031;50.158;8.626;2023-07-16T01:58:23;21.50;99.90
16174;DHT22;14031;50.158;8.626;2023-07-16T02:00:50;21.50;99.90
16174;DHT22;14031;50.158;8.626;2023-07-16T02:03:17;21.40;99.90
16174;DHT22;14031;50.158;8.626;2023-07-16T02:05:45;21.40;99.90
16174;DHT22;14031;50.158;8.626;2023-07-16T02:08:12;21.30;99.90
16174;DHT22;14031;50.158;8.626;2023-07-16T02:10:39;21.40;99.90
16174;DHT22;14031;50.158;8.626;2023-07-16T02:13:05;21.40;99.90
16174;DHT22;14031;50.158;8.626;2023-07-16T02:15:32;21.50;99.90
16174;DHT22;14031;50.158;8.626;2023-07-16T02:17:59;21.30;99.90
16174;DHT22;14031;50.158;8.626;2023-07-16T02:20:26;21.20;99.90
16174;DHT22;14031;50.158;8.626;2023-07-16T02:22:54;21.20;99.90
16174;DHT22;14031;50.158;8.626;2023-07-16T02:25:21;21.20;99.90
16174;DHT22;14031;50.158;8.626;2023-07-16T02:27:47;21.20;99.90
16174;DHT22;14031;50.158;8.626;2023-07-16T02:30:15;21.20;99.90
16174;DHT22;14031;50.158;8.626;2023-07-16T02:32:42;21.20;99.90
16174;DHT22;14031;50.158;8.626;2023-07-16T02:35:09;21.20;99.90
16174;DHT22;14031;50.158;8.626;2023-07-16T02:37:36;21.10;99.90
16174;DHT22;14031;50.158;8.626;2023-07-16T02:40:06;21.10;99.90
16174;DHT22;14031;50.158;8.626;2023-07-16T02:42:33;21.00;99.90
16174;DHT22;14031;50.158;8.626;2023-07-16T02:45:00;20.90;99.90
16174;DHT22;14031;50.158;8.626;2023-07-16T02:47:27;21.00;99.90
16174;DHT22;14031;50.158;8.626;2023-07-16T02:49:53;21.10;99.90
16174;DHT22;14031;50.158;8.626;2023-07-16T02:52:20;21.00;99.90
16174;DHT22;14031;50.158;8.626;2023-07-16T02:54:47;21.00;99.90
16174;DHT22;14031;50.158;8.626;2023-07-16T02:57:15;21.00;99.90
16174;DHT22;14031;50.158;8.626;2023-07-16T02:59:42;21.00;99.90
16174;DHT22;14031;50.158;8.626;2023-07-16T03:02:09;21.00;99.90
16174;DHT22;14031;50.158;8.626;2023-07-16T03:04:36;20.90;99.90
16174;DHT22;14031;50.158;8.626;2023-07-16T03:07:03;21.00;99.90
16174;DHT22;14031;50.158;8.626;2023-07-16T03:09:30;20.90;99.90
16174;DHT22;14031;50.158;8.626;2023-07-16T03:11:56;20.90;99.90
16174;DHT22;14031;50.158;8.626;2023-07-16T03:14:25;20.90;99.90
16174;DHT22;14031;50.158;8.626;2023-07-16T03:16:51;20.80;99.90
16174;DHT22;14031;50.158;8.626;2023-07-16T03:19:18;20.90;99.90
16174;DHT22;14031;50.158;8.626;2023-07-16T03:21:48;20.90;99.90
16174;DHT22;14031;50.158;8.626;2023-07-16T03:24:15;20.90;99.90
16174;DHT22;14031;50.158;8.626;2023-07-16T03:26:42;20.90;99.90
16174;DHT22;14031;50.158;8.626;2023-07-16T03:29:08;20.80;99.90
16174;DHT22;14031;50.158;8.626;2023-07-16T03:31:37;20.80;99.90
16174;DHT22;14031;50.158;8.626;2023-07-16T03:34:03;20.70;99.90
16174;DHT22;14031;50.158;8.626;2023-07-16T03:36:30;20.70;99.90
16174;DHT22;14031;50.158;8.626;2023-07-16T03:38:57;20.60;99.90
16174;DHT22;14031;50.158;8.626;2023-07-16T03:41:24;20.60;99.90
16174;DHT22;14031;50.158;8.626;2023-07-16T03:43:51;20.60;99.90
16174;DHT22;14031;50.158;8.626;2023-07-16T03:46:20;20.60;99.90
16174;DHT22;14031;50.158;8.626;2023-07-16T03:48:49;20.50;99.90
16174;DHT22;14031;50.158;8.626;2023-07-16T03:51:15;20.40;99.90
16174;DHT22;14031;50.158;8.626;2023-07-16T03:53:43;20.50;99.90
16174;DHT22;14031;50.158;8.626;2023-07-16T03:56:10;20.70;99.90
16174;DHT22;14031;50.158;8.626;2023-07-16T03:58:36;20.50;99.90
16174;DHT22;14031;50.158;8.626;2023-07-16T04:01:03;20.70;99.90
16174;DHT22;14031;50.158;8.626;2023-07-16T04:03:32;20.50;99.90
16174;DHT22;14031;50.158;8.626;2023-07-16T04:06:04;20.50;99.90
16174;DHT22;14031;50.158;8.626;2023-07-16T04:08:31;20.50;99.90
16174;DHT22;14031;50.158;8.626;2023-07-16T04:10:58;20.40;99.90
16174;DHT22;14031;50.158;8.626;2023-07-16T04:13:25;20.50;99.90
16174;DHT22;14031;50.158;8.626;2023-07-16T04:15:51;20.40;99.90
16174;DHT22;14031;50.158;8.626;2023-07-16T04:18:20;20.40;99.90
16174;DHT22;14031;50.158;8.626;2023-07-16T04:20:47;20.50;99.90
16174;DHT22;14031;50.158;8.626;2023-07-16T04:23:15;20.40;99.90
16174;DHT22;14031;50.158;8.626;2023-07-16T04:25:42;20.50;99.90
16174;DHT22;14031;50.158;8.626;2023-07-16T04:28:09;20.40;99.90
16174;DHT22;14031;50.158;8.626;2023-07-16T04:30:36;20.40;99.90
16174;DHT22;14031;50.158;8.626;2023-07-16T04:33:03;20.40;99.90
16174;DHT22;14031;50.158;8.626;2023-07-16T04:35:38;20.50;99.90
16174;DHT22;14031;50.158;8.626;2023-07-16T04:38:05;20.40;99.90
16174;DHT22;14031;50.158;8.626;2023-07-16T04:40:34;20.60;99.90
16174;DHT22;14031;50.158;8.626;2023-07-16T04:43:01;20.50;99.90
16174;DHT22;14031;50.158;8.626;2023-07-16T04:45:28;20.50;99.90
16174;DHT22;14031;50.158;8.626;2023-07-16T04:48:05;20.50;99.90
16174;DHT22;14031;50.158;8.626;2023-07-16T04:50:32;20.60;99.90
16174;DHT22;14031;50.158;8.626;2023-07-16T04:52:59;20.60;99.90
16174;DHT22;14031;50.158;8.626;2023-07-16T04:55:26;20.60;99.90
16174;DHT22;14031;50.158;8.626;2023-07-16T04:57:54;20.70;99.90
16174;DHT22;14031;50.158;8.626;2023-07-16T05:00:22;20.70;99.90
16174;DHT22;14031;50.158;8.626;2023-07-16T05:02:49;20.80;99.90
16174;DHT22;14031;50.158;8.626;2023-07-16T05:05:18;20.70;99.90
16174;DHT22;14031;50.158;8.626;2023-07-16T05:07:45;20.80;99.90
16174;DHT22;14031;50.158;8.626;2023-07-16T05:10:13;20.90;99.90
16174;DHT22;14031;50.158;8.626;2023-07-16T05:12:40;20.90;99.90
16174;DHT22;14031;50.158;8.626;2023-07-16T05:15:10;20.90;99.90
16174;DHT22;14031;50.158;8.626;2023-07-16T05:17:36;20.90;99.90
16174;DHT22;14031;50.158;8.626;2023-07-16T05:20:04;20.90;99.90
16174;DHT22;14031;50.158;8.626;2023-07-16T05:22:32;20.90;99.90
16174;DHT22;14031;50.158;8.626;2023-07-16T05:24:59;20.90;99.90
16174;DHT22;14031;50.158;8.626;2023-07-16T05:27:26;20.90;99.90
16174;DHT22;14031;50.158;8.626;2023-07-16T05:29:52;20.90;99.90
16174;DHT22;14031;50.158;8.626;2023-07-16T05:32:21;20.90;99.90
16174;DHT22;14031;50.158;8.626;2023-07-16T05:34:48;20.90;99.90
16174;DHT22;14031;50.158;8.626;2023-07-16T05:37:15;20.90;99.90
16174;DHT22;14031;50.158;8.626;2023-07-16T05:39:42;21.00;99.90
16174;DHT22;14031;50.158;8.626;2023-07-16T05:42:08;21.00;99.90
16174;DHT22;14031;50.158;8.626;2023-07-16T05:44:35;21.00;99.90
16174;DHT22;14031;50.158;8.626;2023-07-16T05:47:02;21.00;99.90
16174;DHT22;14031;50.158;8.626;2023-07-16T05:49:30;21.10;99.90
16174;DHT22;14031;50.158;8.626;2023-07-16T05:51:57;21.10;99.90
16174;DHT22;14031;50.158;8.626;2023-07-16T05:54:24;21.10;99.90
16174;DHT22;14031;50.158;8.626;2023-07-16T05:56:51;21.20;99.90
16174;DHT22;14031;50.158;8.626;2023-07-16T05:59:18;21.20;99.90
16174;DHT22;14031;50.158;8.626;2023-07-16T06:01:47;21.20;99.90
16174;DHT22;14031;50.158;8.626;2023-07-16T06:04:14;21.40;99.90
16174;DHT22;14031;50.158;8.626;2023-07-16T06:06:42;21.20;99.90
16174;DHT22;14031;50.158;8.626;2023-07-16T06:09:09;21.20;99.90
16174;DHT22;14031;50.158;8.626;2023-07-16T06:11:36;21.40;99.90
16174;DHT22;14031;50.158;8.626;2023-07-16T06:14:03;21.40;99.90
16174;DHT22;14031;50.158;8.626;2023-07-16T06:16:30;21.50;99.90
16174;DHT22;14031;50.158;8.626;2023-07-16T06:18:56;21.60;99.90
16174;DHT22;14031;50.158;8.626;2023-07-16T06:21:23;21.60;99.90
16174;DHT22;14031;50.158;8.626;2023-07-16T06:23:55;21.60;99.90
16174;DHT22;14031;50.158;8.626;2023-07-16T06:26:22;21.70;99.90
16174;DHT22;14031;50.158;8.626;2023-07-16T06:28:49;21.70;99.90
16174;DHT22;14031;50.158;8.626;2023-07-16T06:31:16;21.80;99.90
16174;DHT22;14031;50.158;8.626;2023-07-16T06:33:43;21.80;99.90
16174;DHT22;14031;50.158;8.626;2023-07-16T06:36:12;21.90;99.90
16174;DHT22;14031;50.158;8.626;2023-07-16T06:38:38;21.90;99.90
16174;DHT22;14031;50.158;8.626;2023-07-16T06:41:07;21.90;99.90
16174;DHT22;14031;50.158;8.626;2023-07-16T06:43:33;21.90;99.90
16174;DHT22;14031;50.158;8.626;2023-07-16T06:46:00;21.90;99.90
16174;DHT22;14031;50.158;8.626;2023-07-16T06:48:28;21.90;99.90
16174;DHT22;14031;50.158;8.626;2023-07-16T06:50:54;21.90;99.90
16174;DHT22;14031;50.158;8.626;2023-07-16T06:53:21;21.90;99.90
16174;DHT22;14031;50.158;8.626;2023-07-16T06:55:48;21.90;99.90
16174;DHT22;14031;50.158;8.626;2023-07-16T06:58:16;21.80;99.90
16174;DHT22;14031;50.158;8.626;2023-07-16T07:00:44;21.80;99.90
16174;DHT22;14031;50.158;8.626;2023-07-16T07:03:10;21.80;99.90
16174;DHT22;14031;50.158;8.626;2023-07-16T07:05:40;21.80;99.90
16174;DHT22;14031;50.158;8.626;2023-07-16T07:08:09;21.80;99.90
16174;DHT22;14031;50.158;8.626;2023-07-16T07:10:36;21.80;99.90
16174;DHT22;14031;50.158;8.626;2023-07-16T07:13:05;21.90;99.90
16174;DHT22;14031;50.158;8.626;2023-07-16T07:15:33;21.90;99.90
16174;DHT22;14031;50.158;8.626;2023-07-16T07:18:00;21.80;99.90
16174;DHT22;14031;50.158;8.626;2023-07-16T07:20:26;21.80;99.90
16174;DHT22;14031;50.158;8.626;2023-07-16T07:22:53;21.70;99.90
16174;DHT22;14031;50.158;8.626;2023-07-16T07:25:20;21.60;99.90
16174;DHT22;14031;50.158;8.626;2023-07-16T07:27:47;21.40;99.90
16174;DHT22;14031;50.158;8.626;2023-07-16T07:30:14;21.50;99.90
16174;DHT22;14031;50.158;8.626;2023-07-16T07:32:42;21.60;99.90
16174;DHT22;14031;50.158;8.626;2023-07-16T07:35:09;21.70;99.90
16174;DHT22;14031;50.158;8.626;2023-07-16T07:37:35;21.80;99.90
16174;DHT22;14031;50.158;8.626;2023-07-16T07:40:03;21.80;99.90
16174;DHT22;14031;50.158;8.626;2023-07-16T07:42:30;21.80;99.90
16174;DHT22;14031;50.158;8.626;2023-07-16T07:44:57;21.70;99.90
16174;DHT22;14031;50.158;8.626;2023-07-16T07:47:24;21.70;99.90
16174;DHT22;14031;50.158;8.626;2023-07-16T07:49:52;21.80;99.90
16174;DHT22;14031;50.158;8.626;2023-07-16T07:52:19;21.90;99.90
16174;DHT22;14031;50.158;8.626;2023-07-16T07:54:46;22.20;99.90
16174;DHT22;14031;50.158;8.626;2023-07-16T07:57:14;22.30;99.90
16174;DHT22;14031;50.158;8.626;2023-07-16T07:59:41;22.40;99.90
16174;DHT22;14031;50.158;8.626;2023-07-16T08:02:07;22.50;99.90
16174;DHT22;14031;50.158;8.626;2023-07-16T08:04:34;22.50;99.90
16174;DHT22;14031;50.158;8.626;2023-07-16T08:07:03;22.50;99.90
16174;DHT22;14031;50.158;8.626;2023-07-16T08:09:30;22.60;99.90
16174;DHT22;14031;50.158;8.626;2023-07-16T08:11:56;22.70;99.90
16174;DHT22;14031;50.158;8.626;2023-07-16T08:14:23;22.70;99.90
16174;DHT22;14031;50.158;8.626;2023-07-16T08:16:50;22.80;99.90
16174;DHT22;14031;50.158;8.626;2023-07-16T08:19:17;23.00;99.90
16174;DHT22;14031;50.158;8.626;2023-07-16T08:21:43;23.10;99.90
16174;DHT22;14031;50.158;8.626;2023-07-16T08:24:12;23.10;99.90
16174;DHT22;14031;50.158;8.626;2023-07-16T08:26:38;23.10;99.90
16174;DHT22;14031;50.158;8.626;2023-07-16T08:29:05;23.10;99.90
16174;DHT22;14031;50.158;8.626;2023-07-16T08:31:32;23.00;99.90
16174;DHT22;14031;50.158;8.626;2023-07-16T08:33:58;23.10;99.90
16174;DHT22;14031;50.158;8.626;2023-07-16T08:36:25;23.10;99.90
16174;DHT22;14031;50.158;8.626;2023-07-16T08:38:52;23.10;99.90
16174;DHT22;14031;50.158;8.626;2023-07-16T08:41:20;23.10;99.90
16174;DHT22;14031;50.158;8.626;2023-07-16T08:43:47;23.10;99.90
16174;DHT22;14031;50.158;8.626;2023-07-16T08:46:15;23.20;99.90
16174;DHT22;14031;50.158;8.626;2023-07-16T08:48:42;23.00;99.90
16174;DHT22;14031;50.158;8.626;2023-07-16T08:51:14;23.00;99.90
16174;DHT22;14031;50.158;8.626;2023-07-16T08:53:41;23.00;99.90
16174;DHT22;14031;50.158;8.626;2023-07-16T08:56:08;23.10;99.90
16174;DHT22;14031;50.158;8.626;2023-07-16T08:58:37;23.20;99.90
16174;DHT22;14031;50.158;8.626;2023-07-16T09:01:05;23.40;99.90
16174;DHT22;14031;50.158;8.626;2023-07-16T09:03:32;23.40;99.90
16174;DHT22;14031;50.158;8.626;2023-07-16T09:05:59;23.60;99.90
16174;DHT22;14031;50.158;8.626;2023-07-16T09:08:26;23.70;99.90
16174;DHT22;14031;50.158;8.626;2023-07-16T09:10:54;23.70;99.90
16174;DHT22;14031;50.158;8.626;2023-07-16T09:13:22;23.70;99.90
16174;DHT22;14031;50.158;8.626;2023-07-16T09:15:54;23.80;99.90
16174;DHT22;14031;50.158;8.626;2023-07-16T09:18:21;23.90;99.90
16174;DHT22;14031;50.158;8.626;2023-07-16T09:20:49;24.00;99.90
16174;DHT22;14031;50.158;8.626;2023-07-16T09:23:20;24.10;99.90
16174;DHT22;14031;50.158;8.626;2023-07-16T09:25:49;24.30;99.90
16174;DHT22;14031;50.158;8.626;2023-07-16T09:28:18;24.30;99.90
16174;DHT22;14031;50.158;8.626;2023-07-16T09:30:46;24.40;99.90
16174;DHT22;14031;50.158;8.626;2023-07-16T09:33:16;24.50;99.90
16174;DHT22;14031;50.158;8.626;2023-07-16T09:35:43;24.50;99.90
16174;DHT22;14031;50.158;8.626;2023-07-16T09:38:10;24.50;99.90
16174;DHT22;14031;50.158;8.626;2023-07-16T09:40:37;24.50;99.90
16174;DHT22;14031;50.158;8.626;2023-07-16T09:43:06;24.50;99.90
16174;DHT22;14031;50.158;8.626;2023-07-16T09:45:33;24.50;99.90
16174;DHT22;14031;50.158;8.626;2023-07-16T09:47:59;24.50;99.90
16174;DHT22;14031;50.158;8.626;2023-07-16T09:50:29;24.70;99.90
16174;DHT22;14031;50.158;8.626;2023-07-16T09:52:56;24.80;99.90
16174;DHT22;14031;50.158;8.626;2023-07-16T09:55:24;24.90;99.90
16174;DHT22;14031;50.158;8.626;2023-07-16T09:57:53;24.90;99.90
16174;DHT22;14031;50.158;8.626;2023-07-16T10:00:22;24.90;99.90
16174;DHT22;14031;50.158;8.626;2023-07-16T10:02:50;24.90;99.90
16174;DHT22;14031;50.158;8.626;2023-07-16T10:05:19;25.00;99.90
16174;DHT22;14031;50.158;8.626;2023-07-16T10:07:51;25.10;99.90
16174;DHT22;14031;50.158;8.626;2023-07-16T10:10:19;25.10;99.90
16174;DHT22;14031;50.158;8.626;2023-07-16T10:12:55;25.10;99.90
16174;DHT22;14031;50.158;8.626;2023-07-16T10:15:25;25.20;99.90
16174;DHT22;14031;50.158;8.626;2023-07-16T10:17:53;25.30;99.90
16174;DHT22;14031;50.158;8.626;2023-07-16T10:20:28;25.40;99.90
16174;DHT22;14031;50.158;8.626;2023-07-16T10:22:57;25.40;99.90
16174;DHT22;14031;50.158;8.626;2023-07-16T10:25:25;25.50;99.90
16174;DHT22;14031;50.158;8.626;2023-07-16T10:27:53;25.70;99.90
16174;DHT22;14031;50.158;8.626;2023-07-16T10:30:20;25.80;99.90
16174;DHT22;14031;50.158;8.626;2023-07-16T10:36:25;25.70;99.90
16174;DHT22;14031;50.158;8.626;2023-07-16T10:38:52;25.70;99.90
16174;DHT22;14031;50.158;8.626;2023-07-16T10:41:19;25.70;99.90
16174;DHT22;14031;50.158;8.626;2023-07-16T10:43:47;25.80;99.90
16174;DHT22;14031;50.158;8.626;2023-07-16T10:46:13;26.00;99.90
16174;DHT22;14031;50.158;8.626;2023-07-16T10:48:46;26.20;99.90
16174;DHT22;14031;50.158;8.626;2023-07-16T10:51:14;26.40;99.90
16174;DHT22;14031;50.158;8.626;2023-07-16T10:53:42;26.40;99.90
16174;DHT22;14031;50.158;8.626;2023-07-16T10:56:09;26.50;99.90
16174;DHT22;14031;50.158;8.626;2023-07-16T10:58:36;26.60;99.90
16174;DHT22;14031;50.158;8.626;2023-07-16T11:01:03;26.80;99.90
16174;DHT22;14031;50.158;8.626;2023-07-16T11:03:30;26.90;99.90
16174;DHT22;14031;50.158;8.626;2023-07-16T11:05:57;27.00;99.90
16174;DHT22;14031;50.158;8.626;2023-07-16T11:08:23;27.00;99.90
16174;DHT22;14031;50.158;8.626;2023-07-16T11:10:56;27.20;99.90
16174;DHT22;14031;50.158;8.626;2023-07-16T11:13:26;27.30;99.90
16174;DHT22;14031;50.158;8.626;2023-07-16T11:15:53;27.50;99.90
16174;DHT22;14031;50.158;8.626;2023-07-16T11:18:22;27.50;99.90
16174;DHT22;14031;50.158;8.626;2023-07-16T11:20:50;27.50;99.90
16174;DHT22;14031;50.158;8.626;2023-07-16T11:23:17;27.60;99.90
16174;DHT22;14031;50.158;8.626;2023-07-16T11:25:46;27.70;99.90
16174;DHT22;14031;50.158;8.626;2023-07-16T11:28:15;27.80;99.90
16174;DHT22;14031;50.158;8.626;2023-07-16T11:30:41;28.00;99.90
16174;DHT22;14031;50.158;8.626;2023-07-16T11:33:10;28.30;99.90
16174;DHT22;14031;50.158;8.626;2023-07-16T11:35:37;28.40;99.90
16174;DHT22;14031;50.158;8.626;2023-07-16T11:38:04;28.40;99.90
16174;DHT22;14031;50.158;8.626;2023-07-16T11:40:34;28.50;99.90
16174;DHT22;14031;50.158;8.626;2023-07-16T11:43:08;28.60;99.90
16174;DHT22;14031;50.158;8.626;2023-07-16T11:45:37;28.70;99.90
16174;DHT22;14031;50.158;8.626;2023-07-16T11:48:04;28.80;99.90
16174;DHT22;14031;50.158;8.626;2023-07-16T11:50:31;28.90;99.90
16174;DHT22;14031;50.158;8.626;2023-07-16T11:53:00;28.80;99.90
16174;DHT22;14031;50.158;8.626;2023-07-16T11:55:27;28.70;99.90
16174;DHT22;14031;50.158;8.626;2023-07-16T11:57:54;28.60;99.90
16174;DHT22;14031;50.158;8.626;2023-07-16T12:00:22;28.60;99.90
16174;DHT22;14031;50.158;8.626;2023-07-16T12:02:50;28.50;99.90
16174;DHT22;14031;50.158;8.626;2023-07-16T12:05:18;28.30;99.90
16174;DHT22;14031;50.158;8.626;2023-07-16T12:07:44;28.30;99.90
16174;DHT22;14031;50.158;8.626;2023-07-16T12:10:11;28.40;99.90
16174;DHT22;14031;50.158;8.626;2023-07-16T12:12:38;28.40;99.90
16174;DHT22;14031;50.158;8.626;2023-07-16T12:15:06;28.40;99.90
16174;DHT22;14031;50.158;8.626;2023-07-16T12:17:33;28.50;99.90
16174;DHT22;14031;50.158;8.626;2023-07-16T12:20:01;28.60;98.50
16174;DHT22;14031;50.158;8.626;2023-07-16T12:22:29;28.50;97.00
16174;DHT22;14031;50.158;8.626;2023-07-16T12:24:56;28.40;96.70
16174;DHT22;14031;50.158;8.626;2023-07-16T12:27:23;28.20;98.60
16174;DHT22;14031;50.158;8.626;2023-07-16T12:29:49;28.30;99.10
16174;DHT22;14031;50.158;8.626;2023-07-16T12:32:17;28.50;97.70
16174;DHT22;14031;50.158;8.626;2023-07-16T12:34:45;28.60;98.40
16174;DHT22;14031;50.158;8.626;2023-07-16T12:37:13;28.70;98.30
16174;DHT22;14031;50.158;8.626;2023-07-16T12:39:42;28.90;97.60
16174;DHT22;14031;50.158;8.626;2023-07-16T12:42:09;29.00;97.40
16174;DHT22;14031;50.158;8.626;2023-07-16T12:44:35;29.10;96.60
16174;DHT22;14031;50.158;8.626;2023-07-16T12:47:02;29.30;97.20
16174;DHT22;14031;50.158;8.626;2023-07-16T12:49:30;29.40;96.60
16174;DHT22;14031;50.158;8.626;2023-07-16T12:51:57;29.60;94.30
16174;DHT22;14031;50.158;8.626;2023-07-16T12:54:25;29.60;94.80
16174;DHT22;14031;50.158;8.626;2023-07-16T12:56:52;29.70;94.40
16174;DHT22;14031;50.158;8.626;2023-07-16T12:59:18;29.80;93.30
16174;DHT22;14031;50.158;8.626;2023-07-16T13:01:45;29.80;93.80
16174;DHT22;14031;50.158;8.626;2023-07-16T13:04:12;30.00;92.70
16174;DHT22;14031;50.158;8.626;2023-07-16T13:06:39;30.30;93.10
16174;DHT22;14031;50.158;8.626;2023-07-16T13:09:05;30.40;93.00
16174;DHT22;14031;50.158;8.626;2023-07-16T13:11:34;30.50;93.30
16174;DHT22;14031;50.158;8.626;2023-07-16T13:14:01;30.60;91.80
16174;DHT22;14031;50.158;8.626;2023-07-16T13:16:27;30.70;91.60
16174;DHT22;14031;50.158;8.626;2023-07-16T13:18:54;30.80;91.70
16174;DHT22;14031;50.158;8.626;2023-07-16T13:21:21;30.90;91.50
16174;DHT22;14031;50.158;8.626;2023-07-16T13:23:47;31.00;89.70
16174;DHT22;14031;50.158;8.626;2023-07-16T13:26:14;30.90;90.00
16174;DHT22;14031;50.158;8.626;2023-07-16T13:28:42;30.90;91.50
16174;DHT22;14031;50.158;8.626;2023-07-16T13:31:09;31.10;92.60
16174;DHT22;14031;50.158;8.626;2023-07-16T13:33:36;31.30;90.80
16174;DHT22;14031;50.158;8.626;2023-07-16T13:36:05;31.50;89.10
16174;DHT22;14031;50.158;8.626;2023-07-16T13:38:32;31.70;89.40
16174;DHT22;14031;50.158;8.626;2023-07-16T13:40:58;31.90;87.10
16174;DHT22;14031;50.158;8.626;2023-07-16T13:43:25;31.90;83.30
16174;DHT22;14031;50.158;8.626;2023-07-16T13:45:53;31.80;85.90
16174;DHT22;14031;50.158;8.626;2023-07-16T13:48:20;31.50;85.70
16174;DHT22;14031;50.158;8.626;2023-07-16T13:50:47;31.30;86.60
16174;DHT22;14031;50.158;8.626;2023-07-16T13:53:13;31.20;86.30
16174;DHT22;14031;50.158;8.626;2023-07-16T13:55:40;31.20;88.80
16174;DHT22;14031;50.158;8.626;2023-07-16T13:58:09;31.20;87.10
16174;DHT22;14031;50.158;8.626;2023-07-16T14:00:36;31.30;90.10
16174;DHT22;14031;50.158;8.626;2023-07-16T14:03:04;31.50;84.90
16174;DHT22;14031;50.158;8.626;2023-07-16T14:05:31;31.70;85.30
16174;DHT22;14031;50.158;8.626;2023-07-16T14:08:00;32.00;86.30
16174;DHT22;14031;50.158;8.626;2023-07-16T14:10:27;32.20;86.10
16174;DHT22;14031;50.158;8.626;2023-07-16T14:12:53;32.30;83.90
16174;DHT22;14031;50.158;8.626;2023-07-16T14:15:20;32.00;84.30
16174;DHT22;14031;50.158;8.626;2023-07-16T14:17:47;31.50;83.20
16174;DHT22;14031;50.158;8.626;2023-07-16T14:20:15;31.30;85.30
16174;DHT22;14031;50.158;8.626;2023-07-16T14:22:42;31.30;85.50
16174;DHT22;14031;50.158;8.626;2023-07-16T14:25:09;31.40;83.90
16174;DHT22;14031;50.158;8.626;2023-07-16T14:27:35;31.70;82.90
16174;DHT22;14031;50.158;8.626;2023-07-16T14:30:02;32.20;82.60
16174;DHT22;14031;50.158;8.626;2023-07-16T14:32:30;32.40;81.30
16174;DHT22;14031;50.158;8.626;2023-07-16T14:34:57;32.70;82.40
16174;DHT22;14031;50.158;8.626;2023-07-16T14:37:25;32.90;80.60
16174;DHT22;14031;50.158;8.626;2023-07-16T14:39:52;33.10;81.80
16174;DHT22;14031;50.158;8.626;2023-07-16T14:42:18;33.30;81.00
16174;DHT22;14031;50.158;8.626;2023-07-16T14:44:45;33.40;79.70
16174;DHT22;14031;50.158;8.626;2023-07-16T14:47:12;33.60;79.60
16174;DHT22;14031;50.158;8.626;2023-07-16T14:49:39;33.80;79.40
16174;DHT22;14031;50.158;8.626;2023-07-16T14:52:06;33.70;76.20
16174;DHT22;14031;50.158;8.626;2023-07-16T14:54:34;33.50;78.20
16174;DHT22;14031;50.158;8.626;2023-07-16T14:57:01;33.30;75.80
16174;DHT22;14031;50.158;8.626;2023-07-16T14:59:28;33.00;78.90
16174;DHT22;14031;50.158;8.626;2023-07-16T15:01:55;32.90;79.20
16174;DHT22;14031;50.158;8.626;2023-07-16T15:04:22;32.90;76.70
16174;DHT22;14031;50.158;8.626;2023-07-16T15:06:49;33.10;78.80
16174;DHT22;14031;50.158;8.626;2023-07-16T15:09:16;33.30;78.20
16174;DHT22;14031;50.158;8.626;2023-07-16T15:11:44;33.70;78.40
16174;DHT22;14031;50.158;8.626;2023-07-16T15:14:11;34.20;75.40
16174;DHT22;14031;50.158;8.626;2023-07-16T15:16:38;34.60;79.00
16174;DHT22;14031;50.158;8.626;2023-07-16T15:19:05;34.70;75.00
16174;DHT22;14031;50.158;8.626;2023-07-16T15:21:33;34.90;71.10
16174;DHT22;14031;50.158;8.626;2023-07-16T15:24:02;34.90;72.30
16174;DHT22;14031;50.158;8.626;2023-07-16T15:26:28;34.80;70.70
16174;DHT22;14031;50.158;8.626;2023-07-16T15:28:57;35.10;70.50
16174;DHT22;14031;50.158;8.626;2023-07-16T15:31:23;35.50;70.60
16174;DHT22;14031;50.158;8.626;2023-07-16T15:33:53;35.80;67.50
16174;DHT22;14031;50.158;8.626;2023-07-16T15:36:20;36.20;68.40